createdAt,value
2022-10-23T00:01:44.989Z,10.48
2022-10-23T00:04:13.583Z,9.45
2022-10-23T00:06:41.150Z,8.27
2022-10-23T00:09:09.636Z,8.32
2022-10-23T00:11:37.135Z,8.10
2022-10-23T00:14:07.074Z,10.85
2022-10-23T00:16:34.543Z,8.93
2022-10-23T00:19:01.397Z,9.80
2022-10-23T00:21:28.543Z,10.98
2022-10-23T00:23:55.494Z,7.32
2022-10-23T00:26:22.677Z,8.32
2022-10-23T00:28:51.707Z,10.32
2022-10-23T00:31:20.352Z,9.90
2022-10-23T00:33:47.686Z,7.53
2022-10-23T00:36:16.342Z,8.75
2022-10-23T00:38:43.550Z,8.00
2022-10-23T00:41:19.788Z,11.30
2022-10-23T00:44:06.569Z,10.57
2022-10-23T00:46:34.820Z,9.80
2022-10-23T00:49:03.438Z,8.80
2022-10-23T00:51:53.650Z,9.10
2022-10-23T00:54:25.668Z,8.70
2022-10-23T00:56:59.319Z,9.48
2022-10-23T00:59:27.475Z,9.98
2022-10-23T01:01:54.961Z,9.23
2022-10-23T01:04:23.632Z,9.65
2022-10-23T01:07:03.714Z,8.57
2022-10-23T01:09:44.748Z,9.43
2022-10-23T01:12:44.678Z,9.05
2022-10-23T01:15:14.480Z,10.02
2022-10-23T01:17:52.686Z,7.80
2022-10-23T01:20:19.411Z,7.50
2022-10-23T01:23:20.368Z,9.75
2022-10-23T01:26:20.786Z,7.85
2022-10-23T01:28:52.276Z,10.55
2022-10-23T01:31:28.537Z,8.98
2022-10-23T01:34:04.074Z,7.63
2022-10-23T01:36:33.610Z,7.90
2022-10-23T01:39:11.088Z,11.35
2022-10-23T01:41:57.220Z,9.73
2022-10-23T01:44:30.091Z,9.13
2022-10-23T01:46:58.111Z,8.13
2022-10-23T01:49:25.039Z,7.47
2022-10-23T01:51:56.367Z,10.38
2022-10-23T01:54:29.031Z,7.53
2022-10-23T01:56:57.221Z,10.48
2022-10-23T01:59:36.780Z,10.43
2022-10-23T02:02:06.035Z,9.30
2022-10-23T02:05:08.322Z,8.85
2022-10-23T02:07:36.223Z,8.27
2022-10-23T02:10:05.638Z,9.57
2022-10-23T02:15:12.329Z,10.30
2022-10-23T02:18:13.354Z,8.00
2022-10-23T02:20:53.471Z,10.57
2022-10-23T02:23:36.457Z,8.00
2022-10-23T02:26:27.699Z,9.40
2022-10-23T02:29:01.399Z,8.18
2022-10-23T02:31:28.239Z,7.28
2022-10-23T02:33:55.132Z,9.45
2022-10-23T02:36:22.263Z,8.77
2022-10-23T02:38:49.111Z,12.95
2022-10-23T02:41:24.995Z,8.30
2022-10-23T02:44:39.900Z,8.40
2022-10-23T02:47:15.530Z,9.63
2022-10-23T02:50:07.273Z,9.57
2022-10-23T02:52:48.612Z,11.07
2022-10-23T02:55:45.726Z,7.70
2022-10-23T02:58:38.362Z,10.88
2022-10-23T03:01:18.497Z,8.98
2022-10-23T03:06:20.337Z,11.80
2022-10-23T03:08:54.955Z,10.23
2022-10-23T03:11:21.780Z,7.35
2022-10-23T03:13:48.596Z,10.38
2022-10-23T03:16:15.803Z,9.75
2022-10-23T03:18:42.595Z,9.68
2022-10-23T03:21:09.538Z,8.90
2022-10-23T03:23:36.310Z,10.82
2022-10-23T03:26:03.153Z,7.60
2022-10-23T03:28:30.085Z,9.48
2022-10-23T03:30:56.916Z,7.65
2022-10-23T03:33:24.055Z,10.68
2022-10-23T03:35:50.864Z,10.05
2022-10-23T03:38:17.639Z,10.88
2022-10-23T03:40:44.485Z,10.55
2022-10-23T03:43:11.268Z,8.60
2022-10-23T03:45:38.555Z,11.88
2022-10-23T03:48:06.321Z,9.68
2022-10-23T03:50:34.321Z,8.50
2022-10-23T03:53:01.280Z,11.77
2022-10-23T03:55:28.355Z,9.40
2022-10-23T03:57:55.224Z,9.60
2022-10-23T04:00:22.640Z,9.80
2022-10-23T04:02:49.585Z,10.48
2022-10-23T04:05:16.473Z,9.00
2022-10-23T04:07:43.295Z,11.48
2022-10-23T04:10:10.272Z,11.63
2022-10-23T04:12:37.211Z,12.15
2022-10-23T04:15:04.509Z,11.15
2022-10-23T04:17:31.354Z,11.07
2022-10-23T04:19:58.184Z,13.80
2022-10-23T04:22:27.609Z,13.73
2022-10-23T04:24:55.680Z,11.20
2022-10-23T04:27:22.590Z,13.63
2022-10-23T04:29:49.490Z,11.23
2022-10-23T04:32:16.429Z,13.38
2022-10-23T04:34:43.199Z,13.30
2022-10-23T04:37:10.068Z,12.73
2022-10-23T04:39:37.247Z,12.98
2022-10-23T04:42:04.267Z,10.52
2022-10-23T04:44:31.067Z,12.05
2022-10-23T04:46:57.886Z,11.75
2022-10-23T04:49:24.701Z,12.75
2022-10-23T04:51:51.635Z,11.18
2022-10-23T04:54:18.581Z,13.73
2022-10-23T04:56:45.375Z,13.93
2022-10-23T04:59:12.166Z,13.43
2022-10-23T05:01:39.009Z,9.40
2022-10-23T05:04:05.987Z,13.15
2022-10-23T05:06:32.731Z,10.20
2022-10-23T05:08:59.544Z,11.10
2022-10-23T05:11:26.364Z,11.05
2022-10-23T05:13:53.148Z,8.38
2022-10-23T05:16:50.274Z,11.07
2022-10-23T05:19:27.929Z,11.18
2022-10-23T05:21:56.073Z,12.45
2022-10-23T05:24:23.948Z,11.25
2022-10-23T05:26:52.907Z,10.75
2022-10-23T05:29:20.655Z,9.05
2022-10-23T05:31:50.635Z,9.18
2022-10-23T05:34:20.048Z,9.38
2022-10-23T05:39:13.891Z,13.40
2022-10-23T05:41:40.752Z,10.32
2022-10-23T05:44:07.537Z,9.30
2022-10-23T05:46:34.333Z,14.30
2022-10-23T05:49:01.174Z,9.15
2022-10-23T05:51:28.058Z,10.40
2022-10-23T05:53:55.304Z,9.88
2022-10-23T05:56:22.100Z,10.48
2022-10-23T05:58:49.273Z,9.65
2022-10-23T06:01:17.462Z,11.45
2022-10-23T06:03:44.371Z,13.15
2022-10-23T06:06:11.205Z,12.82
2022-10-23T06:08:38.055Z,12.90
2022-10-23T06:11:09.951Z,11.90
2022-10-23T06:13:37.367Z,12.50
2022-10-23T06:16:15.300Z,11.23
2022-10-23T06:18:42.901Z,8.75
2022-10-23T06:21:10.325Z,10.20
2022-10-23T06:23:38.949Z,7.75
2022-10-23T06:26:07.521Z,11.45
2022-10-23T06:28:34.394Z,8.50
2022-10-23T06:31:08.014Z,12.85
2022-10-23T06:33:35.416Z,11.70
2022-10-23T06:36:03.669Z,10.48
2022-10-23T06:38:36.562Z,8.20
2022-10-23T06:41:05.952Z,10.90
2022-10-23T06:43:32.859Z,11.80
2022-10-23T06:46:04.578Z,8.32
2022-10-23T06:48:32.125Z,11.23
2022-10-23T06:50:59.674Z,8.15
2022-10-23T06:53:26.521Z,10.15
2022-10-23T06:55:58.650Z,8.55
2022-10-23T06:58:25.901Z,10.32
2022-10-23T07:00:53.235Z,9.57
2022-10-23T07:03:20.079Z,9.57
2022-10-23T07:05:47.509Z,7.28
2022-10-23T07:08:14.715Z,6.95
2022-10-23T07:10:44.423Z,6.97
2022-10-23T07:13:11.996Z,7.38
2022-10-23T07:15:40.135Z,9.90
2022-10-23T07:18:06.955Z,9.07
2022-10-23T07:20:34.026Z,9.77
2022-10-23T07:23:01.011Z,9.00
2022-10-23T07:25:27.898Z,7.45
2022-10-23T07:27:57.871Z,12.02
2022-10-23T07:30:24.845Z,9.70
2022-10-23T07:32:51.809Z,12.27
2022-10-23T07:35:18.824Z,11.50
2022-10-23T07:37:45.895Z,9.95
2022-10-23T07:40:13.173Z,10.40
2022-10-23T07:42:40.385Z,9.35
2022-10-23T07:45:08.712Z,11.02
2022-10-23T07:47:35.616Z,8.27
2022-10-23T07:50:02.551Z,10.07
2022-10-23T07:52:32.086Z,7.22
2022-10-23T07:55:02.030Z,6.75
2022-10-23T07:57:29.021Z,8.80
2022-10-23T07:59:55.845Z,9.25
2022-10-23T08:02:22.789Z,8.13
2022-10-23T08:04:50.570Z,7.18
2022-10-23T08:07:17.537Z,7.72
2022-10-23T08:09:44.347Z,7.63
2022-10-23T08:12:11.184Z,9.77
2022-10-23T08:14:38.036Z,8.02
2022-10-23T08:17:05.409Z,8.48
2022-10-23T08:19:32.573Z,8.50
2022-10-23T08:21:59.445Z,9.43
2022-10-23T08:24:26.280Z,8.82
2022-10-23T08:26:53.191Z,8.65
2022-10-23T08:29:20.005Z,7.90
2022-10-23T08:31:46.944Z,8.43
2022-10-23T08:34:15.293Z,7.60
2022-10-23T08:36:42.216Z,7.47
2022-10-23T08:39:09.748Z,7.13
2022-10-23T08:41:42.848Z,7.18
2022-10-23T08:44:27.300Z,8.88
2022-10-23T08:47:15.095Z,8.32
2022-10-23T08:49:53.776Z,8.55
2022-10-23T08:52:45.123Z,8.25
2022-10-23T08:55:27.458Z,7.00
2022-10-23T08:58:00.665Z,5.97
2022-10-23T09:00:28.804Z,6.35
2022-10-23T09:02:56.139Z,7.50
2022-10-23T09:05:31.685Z,7.43
2022-10-23T09:08:25.832Z,5.93
2022-10-23T09:11:15.956Z,4.88
2022-10-23T09:14:30.401Z,6.93
2022-10-23T09:17:21.388Z,6.10
2022-10-23T09:22:17.285Z,6.40
2022-10-23T09:24:44.118Z,7.05
2022-10-23T09:27:19.059Z,5.50
2022-10-23T09:29:51.914Z,5.65
2022-10-23T09:32:19.647Z,6.65
2022-10-23T09:34:54.952Z,6.63
2022-10-23T09:37:30.585Z,5.18
2022-10-23T09:40:17.141Z,6.10
2022-10-23T09:43:04.044Z,6.68
2022-10-23T09:45:35.597Z,8.52
2022-10-23T09:48:05.811Z,7.15
2022-10-23T09:50:32.764Z,6.68
2022-10-23T09:52:59.956Z,6.90
2022-10-23T09:55:28.147Z,6.57
2022-10-23T09:57:55.916Z,5.32
2022-10-23T10:00:26.368Z,5.72
2022-10-23T10:03:02.354Z,7.20
2022-10-23T10:05:41.500Z,6.30
2022-10-23T10:08:20.633Z,4.95
2022-10-23T10:11:35.386Z,6.68
2022-10-23T10:14:27.224Z,4.35
2022-10-23T10:17:26.419Z,5.35
2022-10-23T10:20:11.999Z,5.43
2022-10-23T10:22:57.226Z,6.07
2022-10-23T10:26:07.004Z,5.35
2022-10-23T10:28:58.326Z,4.82
2022-10-23T10:31:27.887Z,4.90
2022-10-23T10:34:13.287Z,5.70
2022-10-23T10:36:52.992Z,5.18
2022-10-23T10:39:53.096Z,4.35
2022-10-23T10:42:43.294Z,5.18
2022-10-23T10:45:22.088Z,5.13
2022-10-23T10:48:01.448Z,4.93
2022-10-23T10:50:38.702Z,6.10
2022-10-23T10:53:14.921Z,4.63
2022-10-23T10:55:42.523Z,4.40
2022-10-23T10:58:59.424Z,3.53
2022-10-23T11:01:29.102Z,5.55
2022-10-23T11:04:26.561Z,5.00
2022-10-23T11:06:55.431Z,4.75
2022-10-23T11:09:28.068Z,5.35
2022-10-23T11:11:55.460Z,5.05
2022-10-23T11:14:34.474Z,6.32
2022-10-23T11:17:04.203Z,4.32
2022-10-23T11:19:49.124Z,4.50
2022-10-23T11:22:26.881Z,4.70
2022-10-23T11:25:46.584Z,4.65
2022-10-23T11:28:19.161Z,4.53
2022-10-23T11:31:11.948Z,4.60
2022-10-23T11:34:00.385Z,3.65
2022-10-23T11:37:09.105Z,3.72
2022-10-23T11:39:39.077Z,3.92
2022-10-23T11:42:05.917Z,4.75
2022-10-23T11:44:39.485Z,4.05
2022-10-23T11:47:26.541Z,3.67
2022-10-23T11:50:14.875Z,3.58
2022-10-23T11:53:20.907Z,3.70
2022-10-23T11:55:58.527Z,3.85
2022-10-23T11:58:41.762Z,4.35
2022-10-23T12:01:39.552Z,4.20
2022-10-23T12:04:15.731Z,3.92
2022-10-23T12:07:03.073Z,3.85
2022-10-23T12:09:46.503Z,4.35
2022-10-23T12:12:17.665Z,3.67
2022-10-23T12:14:51.684Z,4.20
2022-10-23T12:17:24.697Z,3.55
2022-10-23T12:20:19.310Z,4.60
2022-10-23T12:23:01.286Z,4.53
2022-10-23T12:25:36.900Z,3.95
2022-10-23T12:28:41.578Z,3.88
2022-10-23T12:31:26.631Z,4.00
2022-10-23T12:34:23.720Z,3.95
2022-10-23T12:37:24.278Z,4.00
2022-10-23T12:39:59.198Z,3.88
2022-10-23T12:42:28.557Z,3.65
2022-10-23T12:47:30.522Z,3.50
2022-10-23T12:49:57.544Z,4.00
2022-10-23T12:52:27.178Z,3.53
2022-10-23T12:54:54.119Z,3.97
2022-10-23T12:57:25.861Z,4.07
2022-10-23T13:00:02.451Z,4.15
2022-10-23T13:02:31.424Z,4.00
2022-10-23T13:05:02.760Z,4.20
2022-10-23T13:07:33.853Z,3.83
2022-10-23T13:10:01.804Z,3.88
2022-10-23T13:12:35.228Z,4.43
2022-10-23T13:15:16.256Z,4.00
2022-10-23T13:18:01.398Z,3.55
2022-10-23T13:20:35.222Z,3.35
2022-10-23T13:23:07.955Z,3.63
2022-10-23T13:25:36.901Z,3.72
2022-10-23T13:28:22.385Z,4.05
2022-10-23T13:31:32.345Z,4.07
2022-10-23T13:34:01.769Z,3.97
2022-10-23T13:36:30.848Z,4.30
2022-10-23T13:39:14.542Z,3.65
2022-10-23T13:41:47.558Z,3.50
2022-10-23T13:44:19.985Z,4.30
2022-10-23T13:46:48.287Z,4.05
2022-10-23T13:49:16.044Z,4.27
2022-10-23T13:51:49.895Z,3.95
2022-10-23T13:54:20.358Z,4.30
2022-10-23T13:56:48.101Z,3.65
2022-10-23T13:59:15.679Z,3.35
2022-10-23T14:01:43.499Z,4.00
2022-10-23T14:04:11.379Z,3.75
2022-10-23T14:06:38.883Z,4.18
2022-10-23T14:09:12.450Z,3.47
2022-10-23T14:11:39.993Z,3.30
2022-10-23T14:14:07.111Z,3.70
2022-10-23T14:16:33.953Z,3.90
2022-10-23T14:19:00.848Z,3.55
2022-10-23T14:21:27.708Z,4.57
2022-10-23T14:23:54.635Z,4.13
2022-10-23T14:26:25.212Z,4.05
2022-10-23T14:28:54.038Z,3.47
2022-10-23T14:31:21.297Z,4.07
2022-10-23T14:33:53.224Z,3.95
2022-10-23T14:36:20.249Z,3.70
2022-10-23T14:38:47.161Z,4.40
2022-10-23T14:41:16.199Z,4.32
2022-10-23T14:43:43.229Z,3.70
2022-10-23T14:46:15.547Z,3.97
2022-10-23T14:48:46.070Z,3.67
2022-10-23T14:51:22.582Z,3.67
2022-10-23T14:53:50.378Z,3.70
2022-10-23T14:56:18.282Z,3.70
2022-10-23T14:58:45.158Z,3.63
2022-10-23T15:01:12.108Z,4.32
2022-10-23T15:03:39.033Z,3.50
2022-10-23T15:06:07.020Z,3.97
2022-10-23T15:08:34.558Z,3.60
2022-10-23T15:11:02.921Z,3.55
2022-10-23T15:13:29.803Z,3.57
2022-10-23T15:16:08.442Z,3.60
2022-10-23T15:21:10.507Z,4.18
2022-10-23T15:23:39.879Z,4.05
2022-10-23T15:26:14.401Z,3.30
2022-10-23T15:28:41.144Z,4.05
2022-10-23T15:31:30.047Z,4.13
2022-10-23T15:33:57.862Z,4.10
2022-10-23T15:36:25.295Z,3.78
2022-10-23T15:38:52.600Z,3.83
2022-10-23T15:41:28.643Z,3.60
2022-10-23T15:43:55.441Z,3.63
2022-10-23T15:46:22.243Z,4.05
2022-10-23T15:48:49.092Z,4.18
2022-10-23T15:51:16.046Z,3.92
2022-10-23T15:53:42.892Z,4.20
2022-10-23T15:56:09.762Z,3.95
2022-10-23T15:58:36.613Z,4.07
2022-10-23T16:01:06.518Z,4.07
2022-10-23T16:03:34.841Z,3.80
2022-10-23T16:06:13.743Z,4.53
2022-10-23T16:08:41.609Z,4.00
2022-10-23T16:11:19.352Z,4.10
2022-10-23T16:13:47.619Z,4.57
2022-10-23T16:16:16.094Z,4.22
2022-10-23T16:18:44.535Z,4.43
2022-10-23T16:21:19.076Z,4.93
2022-10-23T16:23:46.242Z,4.88
2022-10-23T16:26:13.283Z,4.18
2022-10-23T16:28:40.124Z,3.97
2022-10-23T16:31:19.304Z,4.70
2022-10-23T16:33:48.232Z,4.30
2022-10-23T16:36:15.512Z,4.30
2022-10-23T16:38:42.406Z,4.50
2022-10-23T16:41:09.376Z,4.82
2022-10-23T16:43:36.500Z,3.65
2022-10-23T16:46:15.470Z,4.68
2022-10-23T16:48:43.222Z,4.72
2022-10-23T16:51:12.505Z,3.60
2022-10-23T16:56:08.858Z,5.00
2022-10-23T16:58:36.152Z,5.32
2022-10-23T17:01:06.416Z,4.55
2022-10-23T17:03:39.489Z,5.40
2022-10-23T17:06:11.216Z,4.35
2022-10-23T17:08:38.668Z,5.53
2022-10-23T17:11:18.912Z,4.13
2022-10-23T17:13:55.734Z,4.30
2022-10-23T17:18:54.474Z,5.28
2022-10-23T17:21:22.261Z,4.57
2022-10-23T17:23:50.534Z,4.50
2022-10-23T17:26:20.669Z,4.55
2022-10-23T17:28:47.711Z,4.20
2022-10-23T17:31:19.247Z,5.18
2022-10-23T17:33:47.378Z,4.28
2022-10-23T17:36:16.030Z,4.68
2022-10-23T17:38:46.185Z,4.65
2022-10-23T17:41:15.707Z,3.78
2022-10-23T17:43:43.512Z,4.03
2022-10-23T17:46:12.267Z,4.07
2022-10-23T17:48:40.521Z,3.78
2022-10-23T17:51:21.747Z,4.15
2022-10-23T17:53:53.194Z,3.90
2022-10-23T17:56:25.096Z,4.18
2022-10-23T17:58:54.277Z,3.75
2022-10-23T18:01:26.776Z,4.38
2022-10-23T18:03:54.824Z,3.70
2022-10-23T18:06:29.699Z,3.90
2022-10-23T18:08:57.171Z,3.58
2022-10-23T18:11:26.915Z,3.72
2022-10-23T18:13:54.153Z,3.63
2022-10-23T18:16:21.667Z,3.60
2022-10-23T18:18:49.437Z,4.03
2022-10-23T18:21:17.978Z,3.63
2022-10-23T18:23:45.337Z,3.40
2022-10-23T18:26:19.515Z,3.55
2022-10-23T18:28:48.188Z,3.55
2022-10-23T18:31:16.151Z,3.60
2022-10-23T18:33:43.148Z,3.42
2022-10-23T18:36:22.621Z,4.05
2022-10-23T18:38:50.244Z,3.80
2022-10-23T18:41:18.915Z,3.22
2022-10-23T18:43:46.280Z,3.80
2022-10-23T18:46:13.996Z,3.08
2022-10-23T18:48:41.530Z,3.88
2022-10-23T18:51:21.878Z,3.80
2022-10-23T18:53:49.239Z,3.15
2022-10-23T18:56:22.001Z,3.80
2022-10-23T18:59:01.790Z,3.75
2022-10-23T19:01:30.652Z,3.53
2022-10-23T19:03:59.767Z,3.67
2022-10-23T19:06:28.426Z,4.15
2022-10-23T19:08:55.895Z,3.90
2022-10-23T19:11:24.616Z,3.83
2022-10-23T19:13:51.885Z,4.22
2022-10-23T19:16:44.819Z,3.72
2022-10-23T19:19:26.161Z,4.20
2022-10-23T19:21:54.358Z,4.00
2022-10-23T19:24:32.100Z,3.60
2022-10-23T19:27:01.442Z,3.50
2022-10-23T19:31:58.509Z,4.10
2022-10-23T19:34:25.488Z,4.10
2022-10-23T19:36:54.614Z,3.53
2022-10-23T19:39:22.571Z,3.63
2022-10-23T19:41:51.630Z,4.03
2022-10-23T19:44:19.739Z,3.97
2022-10-23T19:46:47.115Z,3.60
2022-10-23T19:49:14.320Z,3.50
2022-10-23T19:51:50.423Z,3.38
2022-10-23T19:54:17.803Z,3.38
2022-10-23T19:56:44.604Z,3.97
2022-10-23T19:59:13.155Z,3.20
2022-10-23T20:01:43.784Z,3.67
2022-10-23T20:04:13.520Z,3.72
2022-10-23T20:06:40.405Z,3.63
2022-10-23T20:09:09.900Z,3.60
2022-10-23T20:11:39.287Z,3.78
2022-10-23T20:14:06.633Z,3.28
2022-10-23T20:16:35.897Z,3.95
2022-10-23T20:21:31.104Z,3.65
2022-10-23T20:23:59.055Z,3.60
2022-10-23T20:26:26.121Z,3.20
2022-10-23T20:28:55.621Z,3.33
2022-10-23T20:31:24.369Z,3.30
2022-10-23T20:33:51.840Z,3.50
2022-10-23T20:36:28.695Z,3.20
2022-10-23T20:39:00.032Z,3.20
2022-10-23T20:41:28.960Z,3.15
2022-10-23T20:43:56.394Z,3.00
2022-10-23T20:46:23.415Z,3.60
2022-10-23T20:48:50.440Z,3.50
2022-10-23T20:51:19.688Z,3.88
2022-10-23T20:56:17.404Z,3.50
2022-10-23T20:58:44.275Z,3.65
2022-10-23T21:01:13.987Z,3.58
2022-10-23T21:03:40.897Z,3.83
2022-10-23T21:06:11.437Z,3.83
2022-10-23T21:08:39.160Z,3.90
2022-10-23T21:11:08.297Z,4.03
2022-10-23T21:13:35.182Z,3.72
2022-10-23T21:16:15.309Z,4.32
2022-10-23T21:21:17.250Z,3.80
2022-10-23T21:23:44.156Z,3.63
2022-10-23T21:26:11.199Z,4.20
2022-10-23T21:28:38.966Z,3.90
2022-10-23T21:31:08.737Z,3.47
2022-10-23T21:33:37.210Z,4.10
2022-10-23T21:36:13.474Z,3.77
2022-10-23T21:38:40.948Z,4.07
2022-10-23T21:41:09.881Z,3.67
2022-10-23T21:43:36.772Z,5.22
2022-10-23T21:46:05.054Z,4.15
2022-10-23T21:48:32.994Z,3.90
2022-10-23T21:51:00.683Z,3.58
2022-10-23T21:53:28.409Z,3.67
2022-10-23T21:55:59.365Z,4.03
2022-10-23T21:58:26.321Z,3.80
2022-10-23T22:00:53.125Z,3.83
2022-10-23T22:03:20.097Z,3.65
2022-10-23T22:05:47.096Z,3.80
2022-10-23T22:08:14.039Z,3.70
2022-10-23T22:10:40.843Z,4.00
2022-10-23T22:13:07.699Z,3.75
2022-10-23T22:15:34.562Z,4.40
2022-10-23T22:18:01.426Z,4.07
2022-10-23T22:20:28.441Z,3.28
2022-10-23T22:22:55.310Z,3.40
2022-10-23T22:25:22.082Z,3.70
2022-10-23T22:27:48.893Z,3.17
2022-10-23T22:30:15.755Z,3.03
2022-10-23T22:32:42.945Z,3.60
2022-10-23T22:35:09.979Z,2.70
2022-10-23T22:37:36.809Z,3.13
2022-10-23T22:40:03.858Z,2.92
2022-10-23T22:42:30.756Z,3.40
2022-10-23T22:44:57.590Z,3.58
2022-10-23T22:47:24.461Z,3.00
2022-10-23T22:49:51.796Z,3.00
2022-10-23T22:52:18.647Z,3.28
2022-10-23T22:54:45.388Z,3.10
2022-10-23T22:57:12.273Z,2.72
2022-10-23T22:59:39.114Z,3.42
2022-10-23T23:02:06.056Z,3.13
2022-10-23T23:04:40.038Z,3.20
2022-10-23T23:07:08.744Z,3.17
2022-10-23T23:09:37.781Z,3.10
2022-10-23T23:12:05.606Z,2.80
2022-10-23T23:14:32.463Z,2.88
2022-10-23T23:16:59.383Z,3.20
2022-10-23T23:19:26.666Z,2.88
2022-10-23T23:22:00.741Z,2.70
2022-10-23T23:24:27.670Z,2.83
2022-10-23T23:26:54.432Z,2.50
2022-10-23T23:29:21.820Z,2.90
2022-10-23T23:31:48.677Z,3.33
2022-10-23T23:34:15.559Z,3.15
2022-10-23T23:36:42.426Z,2.85
2022-10-23T23:39:10.563Z,3.38
2022-10-23T23:41:38.288Z,2.95
2022-10-23T23:44:05.428Z,3.10
2022-10-23T23:46:32.257Z,3.03
2022-10-23T23:48:59.093Z,3.30
2022-10-23T23:51:26.082Z,3.10
2022-10-23T23:53:53.495Z,2.92
2022-10-23T23:56:20.802Z,3.08
2022-10-23T23:58:47.949Z,3.50
